MET'MAP v2.0
soon released !

Expected late october,
this new version will be
more efficient, smarter,
and hosted on a brand new
server x3 powerfull...
...and still free !


Not compatible ?
Try the mobile version !

LOG IN : | Subscribe | Disclaimer | Who is Orbifly ? |
ICAO code :

TAF - LFOI Abbeville - 26 Feb 2020 18:39 UTC
Data Sources :     NOAA   


- Airport Elevation : 220 ft
- IATA code : XAB
- No reported NOTAMs.


LFOI - Abbeville

Latest METAR recorded : 0000/00/00 G :26 TAF ETNG 261400Z 2615/2706 26012G20KT 9999 SCT015 BKN025 TEMPO 2615/2624 26018G28KT 5000 SHRAGS BKN015CB PROB30 TEMPO 2615/2621 29018G33KT 2000 TSRAGS BECMG 2519/2521 25010KT BECMG 2702/2704 22010KT
NO TAF


MET'MAP, your aeronautical weather chart ! - Copyright ORBIFLY December 2007

Programming & Development : Alexandra Zaïnal
Co-Developer : Marc-Olivier Méhu
Technical & hardware support : Manuel Goepfert
Concept & Financing : Baudouin d'Aumeries